Time;durP1;ratioP1;P1;durP2;ratioP2;P2;SDS_P1;SDS_P2;PMS_P1;PMS_P2;Temp;Humidity;BMP_temperature;BMP_pressure;BME280_temperature;BME280_humidity;BME280_pressure;Samples;Min_cycle;Max_cycle;Signal;HPM_P1;HPM_P2
2021/12/16 00:04:02;;;;;;;16.40;13.68;;;;;;;;;;5054474;28;21143;-74
2021/12/16 00:09:28;;;;;;;18.48;13.85;;;;;;;;;;5045290;28;20241;-75
2021/12/16 00:34:30;;;;;;;17.63;12.85;;;;;;;;;;5055688;28;20229;-74
2021/12/16 00:36:58;;;;;;;17.75;13.27;;;;;;;;;;5061036;28;20205;-74
2021/12/16 00:39:27;;;;;;;18.52;13.30;;;;;;;;;;5052761;28;20582;-73
2021/12/16 00:42:01;;;;;;;19.63;15.68;;;;;;;;;;5064267;28;20194;-73
2021/12/16 00:47:34;;;;;;;19.75;14.60;;;;;;;;;;5043182;28;20280;-75
2021/12/16 00:50:20;;;;;;;15.38;12.27;;;;;;;;;;5057028;28;20206;-74
2021/12/16 00:55:41;;;;;;;16.08;12.68;;;;;;;;;;5046520;28;20673;-74
2021/12/16 00:58:10;;;;;;;16.55;13.63;;;;;;;;;;5059271;28;20218;-73
2021/12/16 01:00:37;;;;;;;16.17;13.82;;;;;;;;;;5060156;28;20357;-75
2021/12/16 01:03:17;;;;;;;15.88;11.88;;;;;;;;;;5060932;28;20205;-74
2021/12/16 01:06:12;;;;;;;16.30;13.27;;;;;;;;;;5058907;28;20194;-74
2021/12/16 01:33:48;;;;;;;18.30;12.50;;;;;;;;;;5054821;28;20193;-74
2021/12/16 01:36:29;;;;;;;18.98;14.10;;;;;;;;;;5051612;28;20199;-74
2021/12/16 01:42:24;;;;;;;18.00;14.35;;;;;;;;;;5045322;28;20332;-75
2021/12/16 01:50:26;;;;;;;20.50;14.05;;;;;;;;;;5005872;28;20225;-74
2021/12/16 01:55:44;;;;;;;20.65;15.15;;;;;;;;;;5056395;28;20672;-73
2021/12/16 01:58:14;;;;;;;14.77;11.55;;;;;;;;;;5056653;28;20703;-74
2021/12/16 02:00:53;;;;;;;14.75;11.52;;;;;;;;;;5043425;28;20258;-73
2021/12/16 02:03:26;;;;;;;21.88;15.63;;;;;;;;;;5045541;28;20207;-76
2021/12/16 02:06:03;;;;;;;20.75;13.77;;;;;;;;;;5049855;28;20678;-75
2021/12/16 02:08:33;;;;;;;16.95;12.23;;;;;;;;;;5044191;28;20292;-74
2021/12/16 02:11:16;;;;;;;15.45;12.07;;;;;;;;;;5049732;28;20218;-74
2021/12/16 02:27:52;;;;;;;17.35;13.35;;;;;;;;;;5057678;28;20313;-73
2021/12/16 02:36:00;;;;;;;16.98;12.32;;;;;;;;;;5049917;28;20552;-74
2021/12/16 02:38:31;;;;;;;20.85;13.32;;;;;;;;;;5036017;28;20218;-75
2021/12/16 02:40:58;;;;;;;18.55;14.45;;;;;;;;;;5049591;28;20210;-74
2021/12/16 02:43:53;;;;;;;20.60;15.00;;;;;;;;;;5052397;28;20647;-74
2021/12/16 02:49:02;;;;;;;22.85;14.48;;;;;;;;;;5036151;28;20277;-73
2021/12/16 02:51:29;;;;;;;25.00;15.82;;;;;;;;;;5047038;28;20631;-73
2021/12/16 02:54:02;;;;;;;17.23;13.05;;;;;;;;;;5041562;28;20210;-73
2021/12/16 02:56:30;;;;;;;23.38;16.02;;;;;;;;;;5047982;28;20666;-75
2021/12/16 02:58:58;;;;;;;21.80;15.25;;;;;;;;;;5041790;28;20233;-74
2021/12/16 03:01:29;;;;;;;18.55;13.48;;;;;;;;;;5046188;28;20643;-75
2021/12/16 03:03:56;;;;;;;23.40;16.58;;;;;;;;;;5049806;28;20230;-75
2021/12/16 03:06:25;;;;;;;20.55;15.52;;;;;;;;;;5049106;28;20718;-76
2021/12/16 03:08:52;;;;;;;22.45;17.35;;;;;;;;;;5043976;28;20198;-75
2021/12/16 03:11:25;;;;;;;28.13;17.45;;;;;;;;;;5042722;28;20686;-76
2021/12/16 03:14:16;;;;;;;25.45;17.05;;;;;;;;;;5062185;28;20706;-76
2021/12/16 03:16:52;;;;;;;24.42;16.00;;;;;;;;;;5051266;28;20662;-75
2021/12/16 03:19:27;;;;;;;23.20;15.18;;;;;;;;;;5053361;28;20501;-75
2021/12/16 03:21:57;;;;;;;18.38;14.63;;;;;;;;;;5048762;28;20303;-75
2021/12/16 03:24:43;;;;;;;27.27;17.20;;;;;;;;;;5040281;28;20195;-76
2021/12/16 03:30:22;;;;;;;24.83;16.42;;;;;;;;;;5043255;28;20256;-75
2021/12/16 03:35:41;;;;;;;24.05;16.38;;;;;;;;;;5017778;28;20564;-76
2021/12/16 03:38:10;;;;;;;22.00;15.95;;;;;;;;;;5037539;28;20241;-71
2021/12/16 03:40:38;;;;;;;24.00;16.63;;;;;;;;;;5039603;28;20199;-71
2021/12/16 03:43:12;;;;;;;19.80;13.88;;;;;;;;;;5055199;28;20195;-71
2021/12/16 03:48:29;;;;;;;20.35;15.40;;;;;;;;;;5054439;28;20206;-71
2021/12/16 03:50:56;;;;;;;20.80;13.95;;;;;;;;;;5048870;28;20577;-71
2021/12/16 03:53:23;;;;;;;22.67;15.25;;;;;;;;;;5037720;28;20606;-73
2021/12/16 03:55:50;;;;;;;22.17;16.33;;;;;;;;;;5042385;28;20199;-71
2021/12/16 03:58:21;;;;;;;20.33;14.35;;;;;;;;;;5061525;28;20688;-72
2021/12/16 04:00:50;;;;;;;25.42;14.93;;;;;;;;;;5049451;28;20700;-72
2021/12/16 04:03:17;;;;;;;24.00;16.60;;;;;;;;;;5054269;28;20199;-71
2021/12/16 04:05:45;;;;;;;24.45;15.90;;;;;;;;;;5045823;28;20663;-71
2021/12/16 04:08:12;;;;;;;23.65;15.90;;;;;;;;;;5046505;28;20204;-71
2021/12/16 04:10:43;;;;;;;20.92;13.45;;;;;;;;;;5044944;28;20195;-72
2021/12/16 04:13:13;;;;;;;20.30;14.48;;;;;;;;;;5048091;28;20206;-72
2021/12/16 04:15:42;;;;;;;17.92;13.90;;;;;;;;;;5064293;28;20207;-72
2021/12/16 04:18:09;;;;;;;18.88;13.65;;;;;;;;;;5042434;28;20218;-71
2021/12/16 04:20:37;;;;;;;18.38;13.27;;;;;;;;;;5051920;28;20202;-71
2021/12/16 04:23:05;;;;;;;21.42;14.57;;;;;;;;;;5044133;28;20222;-72
2021/12/16 04:25:35;;;;;;;20.90;15.73;;;;;;;;;;5051044;28;20602;-72
2021/12/16 04:28:04;;;;;;;20.85;14.70;;;;;;;;;;5045024;28;20196;-72
2021/12/16 04:30:32;;;;;;;24.08;15.45;;;;;;;;;;5049045;28;20194;-74
2021/12/16 04:33:01;;;;;;;23.80;13.93;;;;;;;;;;5050874;28;20580;-72
2021/12/16 04:35:28;;;;;;;26.00;17.45;;;;;;;;;;5050030;28;20195;-72
2021/12/16 04:37:56;;;;;;;22.73;14.80;;;;;;;;;;5049161;28;20203;-72
2021/12/16 04:40:23;;;;;;;23.73;16.10;;;;;;;;;;5047373;28;20562;-74
2021/12/16 04:42:52;;;;;;;24.92;17.75;;;;;;;;;;5059262;28;20645;-73
2021/12/16 04:45:21;;;;;;;27.88;17.52;;;;;;;;;;5064149;28;20284;-71
2021/12/16 04:47:48;;;;;;;19.58;14.65;;;;;;;;;;5060053;28;20589;-73
2021/12/16 04:50:17;;;;;;;22.85;17.35;;;;;;;;;;5046823;28;20187;-72
2021/12/16 04:52:44;;;;;;;22.08;16.00;;;;;;;;;;5047902;28;20446;-75
2021/12/16 04:55:13;;;;;;;24.15;15.80;;;;;;;;;;5045102;28;20538;-72
2021/12/16 04:57:40;;;;;;;24.40;15.25;;;;;;;;;;5053069;28;20791;-71
2021/12/16 05:00:08;;;;;;;24.00;15.63;;;;;;;;;;5050514;28;20230;-72
2021/12/16 05:02:35;;;;;;;21.92;15.07;;;;;;;;;;5050875;28;20655;-72
2021/12/16 05:05:02;;;;;;;24.63;14.85;;;;;;;;;;5058488;28;20218;-75
2021/12/16 05:07:31;;;;;;;27.83;16.58;;;;;;;;;;5056623;28;20203;-71
2021/12/16 05:10:06;;;;;;;23.38;15.05;;;;;;;;;;5048098;28;20211;-72
2021/12/16 05:12:36;;;;;;;28.27;17.15;;;;;;;;;;5054103;28;20210;-73
2021/12/16 05:15:05;;;;;;;22.60;15.30;;;;;;;;;;5057091;28;20633;-72
2021/12/16 05:17:36;;;;;;;19.52;14.35;;;;;;;;;;5060003;28;20194;-71
2021/12/16 05:20:08;;;;;;;21.98;15.85;;;;;;;;;;5061267;28;20774;-72
2021/12/16 05:25:32;;;;;;;26.98;18.02;;;;;;;;;;5049647;28;20224;-72
2021/12/16 05:28:00;;;;;;;22.55;15.93;;;;;;;;;;5059064;28;20285;-72
2021/12/16 05:30:27;;;;;;;23.08;15.88;;;;;;;;;;5051411;28;20199;-72
2021/12/16 05:32:54;;;;;;;19.02;15.50;;;;;;;;;;5053435;28;20206;-73
2021/12/16 05:35:22;;;;;;;22.17;14.38;;;;;;;;;;5068966;28;20661;-71
2021/12/16 05:37:51;;;;;;;26.35;16.70;;;;;;;;;;5065359;28;20203;-74
2021/12/16 05:40:23;;;;;;;26.75;16.33;;;;;;;;;;5049868;28;20233;-72
2021/12/16 05:42:51;;;;;;;26.55;17.50;;;;;;;;;;5052269;28;20194;-72
2021/12/16 05:45:18;;;;;;;24.45;17.20;;;;;;;;;;5051255;28;20233;-71
2021/12/16 05:47:46;;;;;;;26.92;17.00;;;;;;;;;;5065003;28;20297;-72
2021/12/16 05:50:13;;;;;;;22.25;15.48;;;;;;;;;;5062105;28;20205;-71
2021/12/16 05:52:40;;;;;;;25.77;17.40;;;;;;;;;;5049567;28;20574;-72
2021/12/16 05:55:10;;;;;;;22.42;16.40;;;;;;;;;;5043403;28;20199;-73
2021/12/16 05:57:37;;;;;;;24.58;16.17;;;;;;;;;;5044803;28;20198;-74
2021/12/16 06:00:06;;;;;;;28.05;17.15;;;;;;;;;;5059821;28;20222;-71
2021/12/16 06:02:33;;;;;;;27.67;18.88;;;;;;;;;;5042832;28;20206;-72
2021/12/16 06:05:00;;;;;;;25.77;16.73;;;;;;;;;;5050799;28;20630;-73
2021/12/16 06:07:27;;;;;;;22.75;14.80;;;;;;;;;;5041367;28;20648;-71
2021/12/16 06:09:54;;;;;;;25.40;15.98;;;;;;;;;;5031983;28;20198;-72
2021/12/16 06:12:24;;;;;;;21.45;14.85;;;;;;;;;;5051395;28;20202;-72
2021/12/16 06:15:03;;;;;;;23.52;15.77;;;;;;;;;;5066586;28;20201;-71
2021/12/16 06:28:36;;;;;;;22.20;13.73;;;;;;;;;;5047889;28;20198;-73
2021/12/16 06:31:03;;;;;;;25.40;16.13;;;;;;;;;;5049483;28;20616;-73
2021/12/16 06:33:30;;;;;;;24.55;15.55;;;;;;;;;;5043556;28;20199;-72
2021/12/16 06:35:58;;;;;;;26.45;18.33;;;;;;;;;;5059269;28;20738;-72
2021/12/16 06:38:25;;;;;;;32.75;18.30;;;;;;;;;;5055146;28;20197;-72
2021/12/16 06:40:54;;;;;;;21.95;14.18;;;;;;;;;;5050464;28;20685;-72
2021/12/16 06:43:22;;;;;;;27.45;18.38;;;;;;;;;;5057271;28;20203;-71
2021/12/16 06:45:52;;;;;;;28.00;18.63;;;;;;;;;;5059728;28;20306;-71
2021/12/16 06:48:24;;;;;;;21.45;14.85;;;;;;;;;;5040249;28;20289;-72
2021/12/16 06:50:55;;;;;;;22.77;15.30;;;;;;;;;;5061170;28;20197;-72
2021/12/16 06:53:27;;;;;;;19.90;14.32;;;;;;;;;;5053051;28;20651;-74
2021/12/16 06:56:06;;;;;;;24.13;15.20;;;;;;;;;;5033929;28;20213;-75
2021/12/16 06:58:37;;;;;;;24.55;14.90;;;;;;;;;;5045798;28;20195;-73
2021/12/16 07:01:13;;;;;;;25.40;16.23;;;;;;;;;;5053141;28;20218;-73
2021/12/16 07:03:47;;;;;;;22.90;15.00;;;;;;;;;;5041535;28;20200;-73
2021/12/16 07:06:14;;;;;;;24.77;16.10;;;;;;;;;;5057065;28;20256;-74
2021/12/16 07:08:42;;;;;;;23.08;15.25;;;;;;;;;;5038280;28;20191;-73
2021/12/16 07:11:09;;;;;;;19.00;13.98;;;;;;;;;;5053278;28;20641;-73
2021/12/16 07:13:40;;;;;;;19.58;13.93;;;;;;;;;;5049280;28;20681;-72
2021/12/16 07:16:09;;;;;;;23.30;16.15;;;;;;;;;;5056172;28;20198;-73
2021/12/16 07:18:36;;;;;;;23.02;15.50;;;;;;;;;;5052932;28;20202;-73
2021/12/16 07:21:04;;;;;;;19.95;14.82;;;;;;;;;;5058542;28;20210;-73
2021/12/16 07:23:31;;;;;;;19.88;13.48;;;;;;;;;;5060094;28;20218;-74
2021/12/16 07:25:58;;;;;;;22.67;14.75;;;;;;;;;;5049540;28;20206;-72
2021/12/16 07:28:26;;;;;;;23.63;14.90;;;;;;;;;;5047408;28;20285;-74
2021/12/16 07:30:53;;;;;;;24.33;15.63;;;;;;;;;;5048664;28;20865;-73
2021/12/16 07:33:21;;;;;;;20.10;15.25;;;;;;;;;;5051842;28;20199;-73
2021/12/16 07:35:49;;;;;;;23.38;15.60;;;;;;;;;;5058571;28;20201;-73
2021/12/16 07:38:16;;;;;;;22.88;16.05;;;;;;;;;;5060592;28;20209;-73
2021/12/16 07:40:45;;;;;;;28.05;17.25;;;;;;;;;;5041731;28;20246;-75
2021/12/16 07:43:24;;;;;;;24.40;14.57;;;;;;;;;;5044448;28;20206;-73
2021/12/16 07:45:52;;;;;;;26.70;18.05;;;;;;;;;;5050837;28;20194;-72
2021/12/16 07:48:20;;;;;;;24.08;15.27;;;;;;;;;;5051921;28;20204;-73
2021/12/16 07:50:51;;;;;;;27.98;16.52;;;;;;;;;;5057166;28;20221;-73
2021/12/16 07:53:18;;;;;;;25.60;17.15;;;;;;;;;;5049226;28;20214;-73
2021/12/16 07:55:47;;;;;;;21.73;15.07;;;;;;;;;;5066237;28;20574;-72
2021/12/16 07:58:14;;;;;;;21.48;15.32;;;;;;;;;;5062187;28;20639;-75
2021/12/16 08:00:42;;;;;;;20.27;14.32;;;;;;;;;;5046545;28;20234;-74
2021/12/16 08:03:11;;;;;;;20.17;14.73;;;;;;;;;;5059048;28;20282;-72
2021/12/16 08:05:40;;;;;;;24.50;16.70;;;;;;;;;;5055780;28;20206;-73
2021/12/16 08:08:09;;;;;;;20.58;14.30;;;;;;;;;;5051810;28;20713;-74
2021/12/16 08:10:37;;;;;;;24.63;15.07;;;;;;;;;;5052926;28;20202;-74
2021/12/16 08:13:05;;;;;;;23.10;15.98;;;;;;;;;;5052554;28;20670;-72
2021/12/16 08:15:32;;;;;;;24.83;16.50;;;;;;;;;;5060450;28;20206;-73
2021/12/16 08:17:59;;;;;;;21.80;14.80;;;;;;;;;;5058514;28;20202;-72
2021/12/16 08:20:26;;;;;;;19.50;15.55;;;;;;;;;;5061769;28;20736;-72
2021/12/16 08:22:56;;;;;;;21.50;14.45;;;;;;;;;;5058859;28;20616;-73
2021/12/16 08:25:26;;;;;;;23.70;15.57;;;;;;;;;;5046400;28;20666;-73
2021/12/16 08:27:53;;;;;;;23.90;14.90;;;;;;;;;;5052645;28;20210;-73
2021/12/16 08:30:23;;;;;;;24.13;14.07;;;;;;;;;;5050095;28;20659;-72
2021/12/16 08:32:50;;;;;;;20.00;13.35;;;;;;;;;;5053976;28;20187;-74
2021/12/16 08:35:18;;;;;;;19.42;13.82;;;;;;;;;;5044616;28;20198;-73
2021/12/16 08:37:45;;;;;;;19.85;13.60;;;;;;;;;;5055567;28;20202;-75
2021/12/16 08:40:14;;;;;;;27.80;14.13;;;;;;;;;;5056487;28;20218;-76
2021/12/16 08:42:43;;;;;;;18.38;13.88;;;;;;;;;;5048997;28;20646;-73
2021/12/16 08:45:11;;;;;;;20.08;12.68;;;;;;;;;;5056876;28;20219;-74
2021/12/16 08:47:39;;;;;;;19.45;13.05;;;;;;;;;;5049014;28;20208;-73
2021/12/16 08:50:07;;;;;;;21.10;14.20;;;;;;;;;;5049029;28;20217;-73
2021/12/16 08:52:34;;;;;;;25.27;14.27;;;;;;;;;;5049783;28;20558;-74
2021/12/16 08:55:01;;;;;;;21.52;14.45;;;;;;;;;;5065500;28;20205;-72
2021/12/16 08:57:28;;;;;;;24.15;15.55;;;;;;;;;;5060739;28;20260;-72
2021/12/16 08:59:57;;;;;;;28.83;16.42;;;;;;;;;;5064543;28;20222;-74
2021/12/16 09:02:24;;;;;;;20.48;14.25;;;;;;;;;;5057343;28;20199;-74
2021/12/16 09:04:51;;;;;;;25.63;15.82;;;;;;;;;;5040319;28;20203;-71
2021/12/16 09:07:18;;;;;;;20.00;13.48;;;;;;;;;;5054572;28;20195;-73
2021/12/16 09:09:47;;;;;;;29.77;16.52;;;;;;;;;;5048480;28;20650;-73
2021/12/16 09:12:37;;;;;;;29.77;17.08;;;;;;;;;;5050025;28;20670;-73
2021/12/16 09:15:05;;;;;;;23.65;17.48;;;;;;;;;;5046668;28;20561;-71
2021/12/16 09:17:32;;;;;;;31.35;18.95;;;;;;;;;;5054048;28;20198;-73
2021/12/16 09:19:59;;;;;;;26.77;18.02;;;;;;;;;;5059117;28;20225;-72
2021/12/16 09:22:27;;;;;;;33.47;21.27;;;;;;;;;;5053998;28;20199;-73
2021/12/16 09:24:56;;;;;;;24.92;16.10;;;;;;;;;;5044441;28;20210;-71
2021/12/16 09:27:23;;;;;;;22.52;13.98;;;;;;;;;;5049701;28;20673;-72
2021/12/16 09:29:51;;;;;;;26.52;16.48;;;;;;;;;;5051478;28;20658;-72
2021/12/16 09:32:22;;;;;;;32.30;18.77;;;;;;;;;;5050975;28;20205;-73
2021/12/16 09:34:50;;;;;;;35.92;19.48;;;;;;;;;;5045232;28;20575;-71
2021/12/16 09:37:17;;;;;;;32.63;18.50;;;;;;;;;;5063457;28;20202;-73
2021/12/16 09:39:44;;;;;;;31.60;17.75;;;;;;;;;;5041172;28;20196;-73
2021/12/16 09:42:11;;;;;;;34.78;19.60;;;;;;;;;;5056316;28;20662;-71
2021/12/16 09:44:39;;;;;;;29.75;16.02;;;;;;;;;;5057352;28;20199;-71
2021/12/16 09:47:07;;;;;;;37.22;19.92;;;;;;;;;;5049768;28;20203;-72
2021/12/16 09:49:36;;;;;;;29.40;18.92;;;;;;;;;;5045080;28;20199;-72
2021/12/16 09:52:04;;;;;;;28.77;16.75;;;;;;;;;;5044683;28;20211;-74
2021/12/16 09:54:32;;;;;;;23.27;15.48;;;;;;;;;;5051071;28;20209;-71
2021/12/16 09:56:59;;;;;;;31.52;19.10;;;;;;;;;;5050439;28;20214;-71
2021/12/16 09:59:28;;;;;;;29.20;17.73;;;;;;;;;;5051570;28;20223;-73
2021/12/16 10:01:57;;;;;;;31.85;18.08;;;;;;;;;;5060299;28;20221;-73
2021/12/16 10:04:31;;;;;;;33.22;19.42;;;;;;;;;;5064170;28;20257;-71
2021/12/16 10:07:01;;;;;;;25.35;16.13;;;;;;;;;;5047003;28;20207;-72
2021/12/16 10:09:29;;;;;;;23.90;14.55;;;;;;;;;;5045610;28;20638;-71
2021/12/16 10:11:57;;;;;;;22.45;14.75;;;;;;;;;;5031535;28;20663;-70
2021/12/16 10:14:44;;;;;;;20.23;13.50;;;;;;;;;;5047215;28;20843;-70
2021/12/16 10:17:24;;;;;;;25.13;13.60;;;;;;;;;;5059366;28;20198;-71
2021/12/16 10:19:52;;;;;;;24.77;14.38;;;;;;;;;;5037866;28;20688;-70
2021/12/16 10:22:22;;;;;;;25.40;15.48;;;;;;;;;;5063211;28;20662;-70
2021/12/16 10:24:49;;;;;;;26.33;14.88;;;;;;;;;;5043009;28;20681;-71
2021/12/16 10:27:18;;;;;;;22.45;15.18;;;;;;;;;;5059199;28;20225;-71
2021/12/16 10:29:46;;;;;;;25.13;14.55;;;;;;;;;;5049442;28;20693;-69
2021/12/16 10:32:28;;;;;;;22.35;15.27;;;;;;;;;;5037472;28;20674;-72
2021/12/16 10:34:58;;;;;;;22.67;14.05;;;;;;;;;;5046107;28;20198;-70
2021/12/16 10:37:32;;;;;;;23.92;15.80;;;;;;;;;;5053903;28;20194;-71
2021/12/16 10:40:14;;;;;;;25.90;17.13;;;;;;;;;;5045844;28;20204;-73
2021/12/16 10:42:45;;;;;;;24.35;14.00;;;;;;;;;;5049989;28;20199;-72
2021/12/16 10:45:25;;;;;;;27.88;15.18;;;;;;;;;;5058002;28;20211;-71
2021/12/16 10:48:07;;;;;;;24.52;16.80;;;;;;;;;;5040576;28;20205;-71
2021/12/16 10:50:49;;;;;;;28.75;13.65;;;;;;;;;;5056138;28;20199;-72
2021/12/16 10:53:17;;;;;;;19.52;13.93;;;;;;;;;;5051540;28;20199;-72
2021/12/16 10:55:57;;;;;;;25.90;16.85;;;;;;;;;;5049801;28;20229;-73
2021/12/16 10:58:39;;;;;;;21.73;14.88;;;;;;;;;;5042086;28;20201;-72
2021/12/16 11:01:06;;;;;;;25.70;15.48;;;;;;;;;;5052924;28;20230;-74
2021/12/16 11:03:43;;;;;;;24.35;15.45;;;;;;;;;;5066191;28;20262;-72
2021/12/16 11:06:25;;;;;;;24.55;15.15;;;;;;;;;;5059783;28;20696;-73
2021/12/16 11:08:54;;;;;;;23.42;16.05;;;;;;;;;;5045503;28;20206;-74
2021/12/16 11:11:27;;;;;;;23.70;16.05;;;;;;;;;;5046829;28;20214;-73
2021/12/16 11:14:02;;;;;;;22.15;14.02;;;;;;;;;;5057413;28;20652;-72
2021/12/16 11:16:34;;;;;;;20.58;13.75;;;;;;;;;;5051259;28;20213;-72
2021/12/16 11:19:01;;;;;;;21.92;14.63;;;;;;;;;;5045381;28;20210;-72
2021/12/16 11:21:39;;;;;;;24.05;14.73;;;;;;;;;;5051084;28;20222;-72
2021/12/16 11:24:22;;;;;;;20.13;14.20;;;;;;;;;;5046573;28;20194;-73
2021/12/16 11:26:51;;;;;;;21.02;14.05;;;;;;;;;;5049807;28;20218;-73
2021/12/16 11:29:18;;;;;;;29.63;15.93;;;;;;;;;;5049678;28;20199;-72
2021/12/16 11:31:47;;;;;;;23.92;15.15;;;;;;;;;;5059985;28;20267;-72
2021/12/16 11:34:15;;;;;;;21.27;14.50;;;;;;;;;;5049331;28;20555;-73
2021/12/16 11:36:43;;;;;;;22.67;15.82;;;;;;;;;;5061022;28;20574;-74
2021/12/16 11:39:11;;;;;;;25.75;14.50;;;;;;;;;;5047431;28;20376;-73
2021/12/16 11:41:40;;;;;;;23.83;15.75;;;;;;;;;;5050365;28;20226;-72
2021/12/16 11:44:10;;;;;;;24.00;15.25;;;;;;;;;;5056402;28;20206;-72
2021/12/16 11:46:39;;;;;;;22.00;14.77;;;;;;;;;;5066181;28;20206;-72
2021/12/16 11:49:08;;;;;;;22.13;15.75;;;;;;;;;;5055878;28;20207;-73
2021/12/16 11:51:37;;;;;;;22.85;14.15;;;;;;;;;;5046216;28;20196;-73
2021/12/16 11:54:05;;;;;;;21.65;15.80;;;;;;;;;;5049368;28;20209;-74
2021/12/16 11:56:38;;;;;;;22.60;14.68;;;;;;;;;;5057624;28;20209;-73
2021/12/16 11:59:06;;;;;;;22.15;14.85;;;;;;;;;;5054745;28;20201;-74
2021/12/16 12:01:36;;;;;;;24.88;14.90;;;;;;;;;;5057290;28;20268;-73
2021/12/16 12:04:04;;;;;;;17.55;12.77;;;;;;;;;;5030584;28;20647;-72
2021/12/16 12:06:32;;;;;;;22.05;13.52;;;;;;;;;;5044831;28;20210;-74
2021/12/16 12:09:01;;;;;;;20.38;14.30;;;;;;;;;;5045976;28;20722;-73
2021/12/16 12:11:29;;;;;;;19.55;13.43;;;;;;;;;;5042524;28;20195;-74
2021/12/16 12:13:58;;;;;;;20.95;13.88;;;;;;;;;;5049854;28;20716;-75
2021/12/16 12:16:33;;;;;;;21.08;13.30;;;;;;;;;;5048484;28;20203;-76
2021/12/16 12:19:04;;;;;;;23.80;14.23;;;;;;;;;;5052635;28;20203;-73
2021/12/16 12:21:33;;;;;;;19.23;13.77;;;;;;;;;;5060852;28;20248;-73
2021/12/16 12:24:02;;;;;;;22.00;13.60;;;;;;;;;;5046596;28;20206;-74
2021/12/16 12:26:29;;;;;;;21.67;14.38;;;;;;;;;;5050570;28;20207;-73
2021/12/16 12:28:58;;;;;;;18.63;12.10;;;;;;;;;;5049040;28;20210;-74
2021/12/16 12:31:27;;;;;;;21.10;13.35;;;;;;;;;;5060339;28;20589;-75
2021/12/16 12:33:54;;;;;;;19.67;12.15;;;;;;;;;;5049343;28;20570;-73
2021/12/16 12:36:23;;;;;;;20.50;12.77;;;;;;;;;;5047283;28;20207;-73
2021/12/16 12:38:51;;;;;;;19.35;12.02;;;;;;;;;;5057418;28;20203;-75
2021/12/16 12:41:19;;;;;;;15.50;11.90;;;;;;;;;;5048418;28;20221;-74
2021/12/16 12:43:46;;;;;;;16.33;12.43;;;;;;;;;;5049759;28;20199;-74
2021/12/16 12:46:13;;;;;;;19.00;13.70;;;;;;;;;;5046242;28;20649;-72
2021/12/16 12:48:41;;;;;;;19.42;13.43;;;;;;;;;;5050477;28;20640;-74
2021/12/16 12:51:09;;;;;;;19.98;13.30;;;;;;;;;;5059596;28;20468;-72
2021/12/16 12:53:42;;;;;;;17.65;12.10;;;;;;;;;;5047655;28;20195;-73
2021/12/16 12:56:10;;;;;;;15.25;11.80;;;;;;;;;;5041733;28;20306;-73
2021/12/16 12:58:49;;;;;;;18.20;11.93;;;;;;;;;;5045215;28;20654;-73
2021/12/16 13:01:16;;;;;;;16.98;13.10;;;;;;;;;;5053439;28;20229;-73
2021/12/16 13:03:43;;;;;;;22.00;14.90;;;;;;;;;;5053494;28;20202;-73
2021/12/16 13:06:11;;;;;;;19.35;13.40;;;;;;;;;;5057831;28;20202;-73
2021/12/16 13:08:41;;;;;;;16.30;11.57;;;;;;;;;;5032834;28;20206;-72
2021/12/16 13:11:11;;;;;;;17.58;11.20;;;;;;;;;;5048194;28;20667;-74
2021/12/16 13:13:44;;;;;;;18.10;12.20;;;;;;;;;;5047306;28;20206;-72
2021/12/16 13:25:01;;;;;;;15.23;10.80;;;;;;;;;;5043192;28;20237;-74
2021/12/16 13:27:33;;;;;;;15.82;11.55;;;;;;;;;;5057384;28;20198;-72
2021/12/16 13:30:19;;;;;;;17.33;12.35;;;;;;;;;;5048016;28;20210;-73
2021/12/16 13:33:01;;;;;;;17.70;11.15;;;;;;;;;;5038353;28;20213;-73
2021/12/16 13:35:34;;;;;;;16.77;11.68;;;;;;;;;;5047525;28;20293;-72
2021/12/16 13:38:07;;;;;;;18.00;10.80;;;;;;;;;;5037201;28;20627;-72
2021/12/16 13:40:37;;;;;;;16.27;11.63;;;;;;;;;;5030135;28;20211;-72
2021/12/16 13:43:11;;;;;;;16.38;10.98;;;;;;;;;;5060980;28;20327;-72
2021/12/16 13:45:45;;;;;;;14.15;9.65;;;;;;;;;;5048843;28;20205;-72
2021/12/16 13:48:36;;;;;;;16.08;11.15;;;;;;;;;;5050492;28;20203;-72
2021/12/16 14:02:37;;;;;;;16.67;10.18;;;;;;;;;;5049255;28;20219;-72
2021/12/16 14:05:17;;;;;;;17.58;11.02;;;;;;;;;;5055337;28;20206;-73
2021/12/16 14:07:56;;;;;;;18.60;12.40;;;;;;;;;;5033076;28;20253;-72
2021/12/16 14:10:33;;;;;;;15.57;11.02;;;;;;;;;;5043706;28;20194;-72
2021/12/16 14:16:02;;;;;;;16.40;11.02;;;;;;;;;;5027264;28;20195;-73
2021/12/16 14:24:14;;;;;;;23.70;15.30;;;;;;;;;;5045422;28;20255;-72
2021/12/16 14:26:52;;;;;;;28.15;14.10;;;;;;;;;;5047631;28;20942;-71
2021/12/16 14:33:06;;;;;;;25.30;14.48;;;;;;;;;;5056967;28;20205;-73
2021/12/16 14:35:18;;;;;;;28.55;17.42;;;;;;;;;;5049295;28;20312;-74
2021/12/16 14:38:02;;;;;;;29.52;17.50;;;;;;;;;;5056701;28;20616;-72
2021/12/16 14:40:49;;;;;;;36.55;19.45;;;;;;;;;;5044939;28;20206;-71
2021/12/16 14:43:24;;;;;;;27.90;16.92;;;;;;;;;;5055000;28;20223;-73
2021/12/16 14:45:57;;;;;;;28.42;16.13;;;;;;;;;;5057575;28;20628;-71
2021/12/16 14:48:28;;;;;;;49.75;22.70;;;;;;;;;;5050984;28;20244;-72
2021/12/16 14:50:58;;;;;;;32.33;18.63;;;;;;;;;;5047876;28;20260;-71
2021/12/16 14:53:30;;;;;;;34.38;19.83;;;;;;;;;;5045954;28;20202;-75
2021/12/16 14:56:02;;;;;;;28.15;17.65;;;;;;;;;;5044235;28;20211;-71
2021/12/16 14:58:29;;;;;;;74.53;36.70;;;;;;;;;;5050954;28;20218;-71
2021/12/16 15:00:57;;;;;;;63.80;31.23;;;;;;;;;;5045785;28;20236;-70
2021/12/16 15:03:29;;;;;;;58.05;29.80;;;;;;;;;;5048190;28;20198;-73
2021/12/16 15:05:57;;;;;;;49.90;27.90;;;;;;;;;;5047702;28;20606;-72
2021/12/16 15:08:35;;;;;;;52.90;26.58;;;;;;;;;;5043858;28;20227;-70
2021/12/16 15:11:03;;;;;;;50.78;26.58;;;;;;;;;;5049538;28;20665;-70
2021/12/16 15:13:35;;;;;;;58.65;28.85;;;;;;;;;;5049322;28;20211;-71
2021/12/16 15:16:22;;;;;;;48.58;26.83;;;;;;;;;;5044932;28;20264;-72
2021/12/16 15:36:29;;;;;;;47.72;24.50;;;;;;;;;;5034125;28;20238;-72
2021/12/16 15:39:11;;;;;;;43.83;24.63;;;;;;;;;;5026626;28;20203;-72
2021/12/16 15:44:24;;;;;;;73.32;35.97;;;;;;;;;;5045631;28;20341;-74
2021/12/16 15:46:51;;;;;;;74.25;39.53;;;;;;;;;;5055249;28;20467;-73
2021/12/16 15:49:19;;;;;;;73.95;34.42;;;;;;;;;;5063254;28;20206;-74
2021/12/16 15:51:50;;;;;;;65.43;33.55;;;;;;;;;;5052795;28;20240;-73
2021/12/16 15:54:18;;;;;;;55.63;28.90;;;;;;;;;;5045223;28;20702;-73
2021/12/16 15:56:47;;;;;;;67.40;31.92;;;;;;;;;;5052131;28;20209;-74
2021/12/16 15:59:17;;;;;;;56.25;31.25;;;;;;;;;;5055322;28;20594;-71
2021/12/16 16:01:45;;;;;;;68.18;34.53;;;;;;;;;;5046990;28;20220;-71
2021/12/16 16:04:13;;;;;;;58.22;28.35;;;;;;;;;;5059158;28;20214;-73
2021/12/16 16:06:41;;;;;;;56.63;29.88;;;;;;;;;;5059509;28;20205;-72
2021/12/16 16:09:11;;;;;;;53.25;27.73;;;;;;;;;;5043094;28;20198;-72
2021/12/16 16:11:39;;;;;;;47.30;26.92;;;;;;;;;;5055413;28;20631;-72
2021/12/16 16:14:08;;;;;;;53.00;31.02;;;;;;;;;;5048975;28;20206;-73
2021/12/16 16:16:42;;;;;;;53.45;27.50;;;;;;;;;;5055317;28;20202;-71
2021/12/16 16:19:10;;;;;;;57.75;29.35;;;;;;;;;;5069820;28;20212;-71
2021/12/16 16:21:39;;;;;;;47.65;25.40;;;;;;;;;;5059549;28;20214;-72
2021/12/16 16:24:07;;;;;;;46.25;25.75;;;;;;;;;;5058130;28;20204;-74
2021/12/16 16:26:36;;;;;;;44.80;25.83;;;;;;;;;;5046231;28;20200;-72
2021/12/16 16:29:06;;;;;;;50.67;27.33;;;;;;;;;;5054868;28;20203;-73
2021/12/16 16:31:35;;;;;;;46.88;24.55;;;;;;;;;;5047655;28;20207;-71
2021/12/16 16:34:02;;;;;;;46.35;27.08;;;;;;;;;;5050785;28;20209;-72
2021/12/16 16:36:31;;;;;;;45.70;25.10;;;;;;;;;;5051159;28;20207;-71
2021/12/16 16:38:59;;;;;;;40.28;23.83;;;;;;;;;;5035988;28;20199;-73
2021/12/16 16:41:28;;;;;;;41.00;24.08;;;;;;;;;;5048939;28;20225;-72
2021/12/16 16:43:58;;;;;;;37.75;23.92;;;;;;;;;;5032839;28;20551;-71
2021/12/16 16:46:31;;;;;;;44.70;25.58;;;;;;;;;;5052244;28;20682;-72
2021/12/16 16:49:05;;;;;;;38.17;22.95;;;;;;;;;;5063160;28;20217;-71
2021/12/16 16:51:34;;;;;;;43.40;26.90;;;;;;;;;;5055376;28;20843;-71
2021/12/16 16:54:04;;;;;;;39.53;26.17;;;;;;;;;;5050281;28;20198;-72
2021/12/16 16:56:48;;;;;;;37.42;23.50;;;;;;;;;;5049106;28;20218;-72
2021/12/16 16:59:19;;;;;;;39.42;22.65;;;;;;;;;;5048653;28;20234;-71
2021/12/16 17:01:46;;;;;;;37.80;23.27;;;;;;;;;;5047998;28;20206;-70
2021/12/16 17:04:15;;;;;;;40.00;25.70;;;;;;;;;;5057476;28;20979;-71
2021/12/16 17:06:43;;;;;;;44.47;24.83;;;;;;;;;;5058075;28;20199;-71
2021/12/16 17:09:10;;;;;;;40.22;24.13;;;;;;;;;;5045498;28;20230;-70
2021/12/16 17:11:42;;;;;;;37.70;20.13;;;;;;;;;;5048534;28;20214;-72
2021/12/16 17:14:13;;;;;;;43.75;24.27;;;;;;;;;;5056024;28;20242;-72
2021/12/16 17:19:28;;;;;;;40.60;22.83;;;;;;;;;;5046585;28;20233;-72
2021/12/16 17:21:55;;;;;;;42.97;27.02;;;;;;;;;;5047960;28;20195;-70
2021/12/16 17:24:24;;;;;;;42.42;23.95;;;;;;;;;;5038974;28;20226;-71
2021/12/16 17:26:53;;;;;;;39.30;23.70;;;;;;;;;;5055282;28;20587;-72